»·PEaware :: UAL241 KLAX-KLAS

UAL241 :: KLAX-KLAS

FLIGHT INFORMATION

Flight Status: Arrived
Operator:
United Airlines
More flights by this operator :: More flights under this callsign
Pilot: Ryan H. (12491)
Aircraft: BOEING 737-800
(B738)
More flights by this aircraft type
Origin: KLAX Los Angeles Intl
United States
Destination: KLAS McCarran Intl
United States
More flights between these airports :: More routes between these airports
Route: KLAX ORCKA2 MISEN KEPEC6 KLAS
File this flight plan on PilotEdge
Remarks:
Altitude:
(Current/Filed)
270ft
Speed:
(Current/Filed)
450kts
Departed: 02-Dec-17 08:59 AM
Arrived: 02-Dec-17 09:44 AM
Distance/Time
Traveled:
205nm/0:44
Distance/Time
To Go:
Arrived

Flight Plot

Page will automatically refresh every two minutes.

Flight plan parsing failed; only flown route is shown


Map Options




Map Legend


Flown Route
Filed Route
Departure Airport
Arrival Airport
Navaid (VOR, NDB)
Fix

Horizontal Profiles

Position Reports

Time Latitude Longitude Heading Altitude Ground
Speed
02-Dec-17 08:46 33.939842 -118.403821 307 135ft 0kts
02-Dec-17 08:47 33.939842 -118.403821 307 135ft 0kts
02-Dec-17 08:48 33.939842 -118.403821 307 135ft 0kts
02-Dec-17 08:49 33.939842 -118.403821 307 135ft 0kts
02-Dec-17 08:50 33.939842 -118.403821 307 135ft 0kts
02-Dec-17 08:51 33.939842 -118.403821 307 135ft 0kts
02-Dec-17 08:52 33.939842 -118.403821 307 135ft 0kts
02-Dec-17 08:53 33.939842 -118.403821 307 135ft 0kts
02-Dec-17 08:54 33.939842 -118.403821 307 135ft 0kts
02-Dec-17 08:55 33.939842 -118.403821 307 135ft 0kts
02-Dec-17 08:56 33.939842 -118.403821 307 135ft 0kts
02-Dec-17 08:57 33.939842 -118.403821 307 135ft 0kts
02-Dec-17 08:58 33.939842 -118.403821 307 135ft 0kts
02-Dec-17 08:59 33.939359 -118.403566 114 135ft 0kts
02-Dec-17 09:00 33.939359 -118.403566 114 135ft 0kts
02-Dec-17 09:01 33.939359 -118.403566 114 135ft 0kts
02-Dec-17 09:02 33.939359 -118.403565 114 135ft 0kts
02-Dec-17 09:03 33.938695 -118.400893 82 135ft 17kts
02-Dec-17 09:04 33.939650 -118.391540 82 135ft 41kts
02-Dec-17 09:05 33.940716 -118.381084 85 135ft 9kts
02-Dec-17 09:06 33.940669 -118.380762 112 135ft 0kts
02-Dec-17 09:07 33.939196 -118.386367 263 136ft 101kts
02-Dec-17 09:08 33.932022 -118.456781 262 2922ft 248kts
02-Dec-17 09:09 33.912723 -118.524578 251 4372ft 261kts
02-Dec-17 09:10 33.886974 -118.605017 247 7330ft 251kts
02-Dec-17 09:11 33.822409 -118.619298 141 10692ft 307kts
02-Dec-17 09:12 33.808872 -118.526257 61 11544ft 395kts
02-Dec-17 09:13 33.890192 -118.449816 23 14562ft 402kts
02-Dec-17 09:14 33.974430 -118.367215 56 17589ft 430kts
02-Dec-17 09:15 34.028451 -118.261800 53 19909ft 445kts
02-Dec-17 09:16 34.101976 -118.138789 52 22282ft 460kts
02-Dec-17 09:17 34.175490 -118.012709 52 24703ft 464kts
02-Dec-17 09:18 34.250972 -117.883058 53 26528ft 477kts
02-Dec-17 09:19 34.327896 -117.750584 53 26997ft 482kts
02-Dec-17 09:20 34.405701 -117.616453 53 27003ft 493kts
02-Dec-17 09:21 34.484676 -117.479939 53 27003ft 494kts
02-Dec-17 09:22 34.563442 -117.343618 53 27003ft 494kts
02-Dec-17 09:23 34.642150 -117.207101 53 27003ft 494kts
02-Dec-17 09:24 34.721083 -117.069954 53 27003ft 494kts
02-Dec-17 09:25 34.799703 -116.933087 53 27003ft 494kts
02-Dec-17 09:26 34.878530 -116.795604 53 27003ft 494kts
02-Dec-17 09:27 34.957045 -116.658410 53 27003ft 494kts
02-Dec-17 09:28 35.035232 -116.521515 53 26509ft 484kts
02-Dec-17 09:29 35.112144 -116.390447 45 24213ft 464kts
02-Dec-17 09:30 35.202479 -116.277713 43 23410ft 464kts
02-Dec-17 09:31 35.290945 -116.166126 43 21038ft 450kts
02-Dec-17 09:32 35.376822 -116.057732 43 18758ft 435kts
02-Dec-17 09:33 35.459609 -115.953073 43 16554ft 421kts
02-Dec-17 09:34 35.539818 -115.851610 43 14417ft 408kts
02-Dec-17 09:35 35.616627 -115.754372 43 12960ft 383kts
02-Dec-17 09:36 35.693184 -115.657515 43 12837ft 402kts
02-Dec-17 09:37 35.781420 -115.576811 9 12831ft 393kts
02-Dec-17 09:38 35.886244 -115.567563 358 12832ft 359kts
02-Dec-17 09:39 35.971776 -115.538255 50 12165ft 314kts
02-Dec-17 09:40 36.003377 -115.458015 64 11129ft 291kts
02-Dec-17 09:41 36.030879 -115.367204 88 10762ft 284kts
02-Dec-17 09:42 36.023528 -115.270954 95 9083ft 278kts
02-Dec-17 09:43 36.016731 -115.176887 94 8838ft 277kts
02-Dec-17 09:44 36.010752 -115.087617 95 7910ft 249kts
02-Dec-17 09:45 36.013065 -115.007131 60 6626ft 231kts
02-Dec-17 09:46 36.061454 -115.006733 317 4205ft 186kts
02-Dec-17 09:47 36.073812 -115.057928 269 3247ft 152kts
02-Dec-17 09:48 36.073690 -115.109422 269 2491ft 146kts
02-Dec-17 09:49 36.074465 -115.145382 300 2190ft 23kts
02-Dec-17 09:50 36.074914 -115.146288 307 2190ft 6kts
02-Dec-17 09:51 36.077459 -115.146569 0 2190ft 0kts
02-Dec-17 09:52 36.077460 -115.146569 0 2190ft 0kts
02-Dec-17 09:53 36.078643 -115.148552 268 2190ft 16kts
02-Dec-17 09:54 36.080409 -115.152056 1 2190ft 13kts
02-Dec-17 09:55 36.081739 -115.151268 254 2190ft 16kts
02-Dec-17 09:56 36.082516 -115.153645 62 2190ft 2kts
02-Dec-17 09:57 36.082531 -115.153612 62 2190ft 0kts

Navigation Log

Ident Type
Flight plan parsing failed, navigation log unavailable